sensor_id;sensor_type;location;lat;lon;timestamp;pressure;altitude;pressure_sealevel;temperature;humidity
61488;BME280;47351;53.326;-6.298;2023-02-10T00:01:03;103207.89;;;4.67;68.04
61488;BME280;47351;53.326;-6.298;2023-02-10T00:03:54;103207.90;;;4.66;68.10
61488;BME280;47351;53.326;-6.298;2023-02-10T00:06:45;103211.46;;;4.65;68.14
61488;BME280;47351;53.326;-6.298;2023-02-10T00:09:36;103208.86;;;4.64;68.07
61488;BME280;47351;53.326;-6.298;2023-02-10T00:12:27;103199.17;;;4.63;68.18
61488;BME280;47351;53.326;-6.298;2023-02-10T00:15:17;103197.92;;;4.64;68.18
61488;BME280;47351;53.326;-6.298;2023-02-10T00:18:08;103201.39;;;4.66;68.24
61488;BME280;47351;53.326;-6.298;2023-02-10T00:21:05;103205.16;;;4.69;68.37
61488;BME280;47351;53.326;-6.298;2023-02-10T00:23:56;103210.04;;;4.75;68.49
61488;BME280;47351;53.326;-6.298;2023-02-10T00:26:47;103206.63;;;4.81;68.42
61488;BME280;47351;53.326;-6.298;2023-02-10T00:29:37;103201.98;;;4.83;68.36
61488;BME280;47351;53.326;-6.298;2023-02-10T00:32:28;103188.17;;;4.83;68.26
61488;BME280;47351;53.326;-6.298;2023-02-10T00:35:19;103182.72;;;4.81;68.28
61488;BME280;47351;53.326;-6.298;2023-02-10T00:38:10;103184.74;;;4.79;68.32
61488;BME280;47351;53.326;-6.298;2023-02-10T00:41:02;103186.45;;;4.77;68.37
61488;BME280;47351;53.326;-6.298;2023-02-10T00:43:53;103185.29;;;4.75;68.42
61488;BME280;47351;53.326;-6.298;2023-02-10T00:46:43;103187.84;;;4.73;68.56
61488;BME280;47351;53.326;-6.298;2023-02-10T00:49:34;103185.06;;;4.72;68.68
61488;BME280;47351;53.326;-6.298;2023-02-10T00:52:24;103181.72;;;4.71;68.78
61488;BME280;47351;53.326;-6.298;2023-02-10T00:55:15;103176.19;;;4.72;68.86
61488;BME280;47351;53.326;-6.298;2023-02-10T00:58:06;103167.11;;;4.74;69.04
61488;BME280;47351;53.326;-6.298;2023-02-10T01:00:56;103165.41;;;4.76;69.05
61488;BME280;47351;53.326;-6.298;2023-02-10T01:03:48;103167.41;;;4.79;69.08
61488;BME280;47351;53.326;-6.298;2023-02-10T01:06:39;103159.29;;;4.84;69.17
61488;BME280;47351;53.326;-6.298;2023-02-10T01:09:29;103149.73;;;4.88;69.25
61488;BME280;47351;53.326;-6.298;2023-02-10T01:12:22;103147.16;;;4.90;69.25
61488;BME280;47351;53.326;-6.298;2023-02-10T01:15:13;103141.41;;;4.93;69.19
61488;BME280;47351;53.326;-6.298;2023-02-10T01:18:04;103131.42;;;4.95;69.20
61488;BME280;47351;53.326;-6.298;2023-02-10T01:20:58;103123.95;;;4.96;69.27
61488;BME280;47351;53.326;-6.298;2023-02-10T01:23:48;103124.29;;;4.96;69.23
61488;BME280;47351;53.326;-6.298;2023-02-10T01:26:39;103128.69;;;4.96;69.33
61488;BME280;47351;53.326;-6.298;2023-02-10T01:29:31;103126.91;;;4.97;69.33
61488;BME280;47351;53.326;-6.298;2023-02-10T01:32:21;103129.53;;;4.97;69.26
61488;BME280;47351;53.326;-6.298;2023-02-10T01:35:12;103130.59;;;4.98;69.37
61488;BME280;47351;53.326;-6.298;2023-02-10T01:38:02;103132.64;;;4.99;69.42
61488;BME280;47351;53.326;-6.298;2023-02-10T01:40:53;103131.52;;;5.01;69.44
61488;BME280;47351;53.326;-6.298;2023-02-10T01:44:02;103126.14;;;5.02;69.40
61488;BME280;47351;53.326;-6.298;2023-02-10T01:46:54;103117.71;;;5.05;69.49
61488;BME280;47351;53.326;-6.298;2023-02-10T01:49:45;103114.08;;;5.07;69.53
61488;BME280;47351;53.326;-6.298;2023-02-10T01:52:37;103101.26;;;5.09;69.59
61488;BME280;47351;53.326;-6.298;2023-02-10T01:55:30;103093.75;;;5.11;69.60
61488;BME280;47351;53.326;-6.298;2023-02-10T01:58:24;103085.52;;;5.13;69.68
61488;BME280;47351;53.326;-6.298;2023-02-10T02:01:16;103083.81;;;5.16;69.72
61488;BME280;47351;53.326;-6.298;2023-02-10T02:04:08;103081.39;;;5.19;69.75
61488;BME280;47351;53.326;-6.298;2023-02-10T02:06:59;103076.11;;;5.22;69.74
61488;BME280;47351;53.326;-6.298;2023-02-10T02:09:49;103066.10;;;5.24;69.64
61488;BME280;47351;53.326;-6.298;2023-02-10T02:12:41;103065.52;;;5.25;69.59
61488;BME280;47351;53.326;-6.298;2023-02-10T02:15:36;103064.71;;;5.28;69.67
61488;BME280;47351;53.326;-6.298;2023-02-10T02:18:32;103060.32;;;5.31;69.58
61488;BME280;47351;53.326;-6.298;2023-02-10T02:24:54;103060.85;;;5.40;69.53
61488;BME280;47351;53.326;-6.298;2023-02-10T02:27:52;103055.54;;;5.43;69.43
61488;BME280;47351;53.326;-6.298;2023-02-10T02:34:10;103036.43;;;5.51;69.32
61488;BME280;47351;53.326;-6.298;2023-02-10T02:37:03;103024.85;;;5.52;69.26
61488;BME280;47351;53.326;-6.298;2023-02-10T02:39:55;103018.63;;;5.53;69.23
61488;BME280;47351;53.326;-6.298;2023-02-10T02:42:46;103020.36;;;5.54;69.26
61488;BME280;47351;53.326;-6.298;2023-02-10T02:45:42;103024.95;;;5.54;69.28
61488;BME280;47351;53.326;-6.298;2023-02-10T02:48:51;103022.42;;;5.55;69.31
61488;BME280;47351;53.326;-6.298;2023-02-10T02:51:47;103022.35;;;5.57;69.35
61488;BME280;47351;53.326;-6.298;2023-02-10T02:54:45;103017.59;;;5.60;69.37
61488;BME280;47351;53.326;-6.298;2023-02-10T02:57:39;103018.67;;;5.64;69.40
61488;BME280;47351;53.326;-6.298;2023-02-10T03:00:31;103013.56;;;5.67;69.37
61488;BME280;47351;53.326;-6.298;2023-02-10T03:03:23;103015.18;;;5.71;69.35
61488;BME280;47351;53.326;-6.298;2023-02-10T03:06:14;103005.48;;;5.73;69.34
61488;BME280;47351;53.326;-6.298;2023-02-10T03:09:05;103007.69;;;5.75;69.34
61488;BME280;47351;53.326;-6.298;2023-02-10T03:11:55;103012.55;;;5.78;69.46
61488;BME280;47351;53.326;-6.298;2023-02-10T03:14:46;103018.14;;;5.79;69.45
61488;BME280;47351;53.326;-6.298;2023-02-10T03:17:36;103018.08;;;5.81;69.52
61488;BME280;47351;53.326;-6.298;2023-02-10T03:20:27;103022.27;;;5.82;69.54
61488;BME280;47351;53.326;-6.298;2023-02-10T03:23:18;103024.70;;;5.83;69.59
61488;BME280;47351;53.326;-6.298;2023-02-10T03:26:08;103024.29;;;5.84;69.73
61488;BME280;47351;53.326;-6.298;2023-02-10T03:28:59;103015.88;;;5.86;69.77
61488;BME280;47351;53.326;-6.298;2023-02-10T03:31:49;103014.41;;;5.87;69.83
61488;BME280;47351;53.326;-6.298;2023-02-10T03:34:41;103009.05;;;5.88;70.05
61488;BME280;47351;53.326;-6.298;2023-02-10T03:37:32;103001.30;;;5.91;70.31
61488;BME280;47351;53.326;-6.298;2023-02-10T03:40:22;102993.95;;;5.93;70.28
61488;BME280;47351;53.326;-6.298;2023-02-10T03:43:13;102994.67;;;5.97;70.36
61488;BME280;47351;53.326;-6.298;2023-02-10T03:46:03;102993.05;;;6.01;70.45
61488;BME280;47351;53.326;-6.298;2023-02-10T03:48:54;102991.25;;;6.06;70.64
61488;BME280;47351;53.326;-6.298;2023-02-10T03:51:45;102993.80;;;6.12;70.79
61488;BME280;47351;53.326;-6.298;2023-02-10T03:54:35;102992.81;;;6.18;70.85
61488;BME280;47351;53.326;-6.298;2023-02-10T03:57:27;102987.78;;;6.22;71.01
61488;BME280;47351;53.326;-6.298;2023-02-10T04:00:18;102984.23;;;6.26;71.08
61488;BME280;47351;53.326;-6.298;2023-02-10T04:03:08;102975.98;;;6.28;71.22
61488;BME280;47351;53.326;-6.298;2023-02-10T04:05:59;102974.14;;;6.30;71.27
61488;BME280;47351;53.326;-6.298;2023-02-10T04:08:49;102963.64;;;6.30;71.34
61488;BME280;47351;53.326;-6.298;2023-02-10T04:11:40;102959.20;;;6.31;71.47
61488;BME280;47351;53.326;-6.298;2023-02-10T04:14:30;102954.23;;;6.31;71.68
61488;BME280;47351;53.326;-6.298;2023-02-10T04:17:20;102952.11;;;6.30;71.85
61488;BME280;47351;53.326;-6.298;2023-02-10T04:20:11;102946.43;;;6.31;72.05
61488;BME280;47351;53.326;-6.298;2023-02-10T04:23:01;102940.73;;;6.31;72.26
61488;BME280;47351;53.326;-6.298;2023-02-10T04:25:52;102937.79;;;6.33;72.49
61488;BME280;47351;53.326;-6.298;2023-02-10T04:28:43;102933.35;;;6.37;72.70
61488;BME280;47351;53.326;-6.298;2023-02-10T04:31:33;102929.98;;;6.40;72.85
61488;BME280;47351;53.326;-6.298;2023-02-10T04:34:23;102931.34;;;6.45;73.22
61488;BME280;47351;53.326;-6.298;2023-02-10T04:37:14;102935.14;;;6.51;73.43
61488;BME280;47351;53.326;-6.298;2023-02-10T04:40:05;102935.76;;;6.56;73.62
61488;BME280;47351;53.326;-6.298;2023-02-10T04:42:56;102932.34;;;6.60;73.75
61488;BME280;47351;53.326;-6.298;2023-02-10T04:45:47;102925.11;;;6.63;74.19
61488;BME280;47351;53.326;-6.298;2023-02-10T04:48:38;102919.84;;;6.69;74.81
61488;BME280;47351;53.326;-6.298;2023-02-10T04:51:31;102916.22;;;6.73;74.87
61488;BME280;47351;53.326;-6.298;2023-02-10T04:54:21;102914.16;;;6.76;74.87
61488;BME280;47351;53.326;-6.298;2023-02-10T04:57:12;102915.31;;;6.78;75.18
61488;BME280;47351;53.326;-6.298;2023-02-10T05:00:03;102920.48;;;6.81;75.62
61488;BME280;47351;53.326;-6.298;2023-02-10T05:02:53;102913.56;;;6.84;75.89
61488;BME280;47351;53.326;-6.298;2023-02-10T05:05:44;102914.99;;;6.87;75.93
61488;BME280;47351;53.326;-6.298;2023-02-10T05:08:35;102919.25;;;6.91;76.23
61488;BME280;47351;53.326;-6.298;2023-02-10T05:11:29;102917.20;;;6.95;76.64
61488;BME280;47351;53.326;-6.298;2023-02-10T05:14:20;102916.11;;;7.00;76.82
61488;BME280;47351;53.326;-6.298;2023-02-10T05:17:10;102918.64;;;7.02;77.09
61488;BME280;47351;53.326;-6.298;2023-02-10T05:20:01;102914.52;;;7.07;77.37
61488;BME280;47351;53.326;-6.298;2023-02-10T05:22:52;102914.83;;;7.11;77.75
61488;BME280;47351;53.326;-6.298;2023-02-10T05:25:42;102912.50;;;7.14;78.15
61488;BME280;47351;53.326;-6.298;2023-02-10T05:28:32;102917.61;;;7.18;78.19
61488;BME280;47351;53.326;-6.298;2023-02-10T05:31:23;102915.59;;;7.23;78.37
61488;BME280;47351;53.326;-6.298;2023-02-10T05:34:14;102913.73;;;7.28;78.63
61488;BME280;47351;53.326;-6.298;2023-02-10T05:37:05;102912.63;;;7.35;79.14
61488;BME280;47351;53.326;-6.298;2023-02-10T05:39:55;102906.10;;;7.40;79.35
61488;BME280;47351;53.326;-6.298;2023-02-10T05:42:46;102906.67;;;7.46;79.93
61488;BME280;47351;53.326;-6.298;2023-02-10T05:45:37;102902.80;;;7.52;80.18
61488;BME280;47351;53.326;-6.298;2023-02-10T05:48:27;102903.67;;;7.56;80.65
61488;BME280;47351;53.326;-6.298;2023-02-10T05:51:17;102906.20;;;7.61;81.19
61488;BME280;47351;53.326;-6.298;2023-02-10T05:54:08;102904.49;;;7.67;81.34
61488;BME280;47351;53.326;-6.298;2023-02-10T05:57:00;102898.14;;;7.72;81.76
61488;BME280;47351;53.326;-6.298;2023-02-10T05:59:51;102894.10;;;7.81;83.05
61488;BME280;47351;53.326;-6.298;2023-02-10T06:02:41;102894.57;;;7.88;83.27
61488;BME280;47351;53.326;-6.298;2023-02-10T06:05:32;102895.78;;;7.92;83.18
61488;BME280;47351;53.326;-6.298;2023-02-10T06:08:22;102900.36;;;7.96;83.30
61488;BME280;47351;53.326;-6.298;2023-02-10T06:11:13;102900.86;;;7.96;83.06
61488;BME280;47351;53.326;-6.298;2023-02-10T06:14:04;102901.63;;;7.99;82.96
61488;BME280;47351;53.326;-6.298;2023-02-10T06:16:54;102899.04;;;8.00;83.03
61488;BME280;47351;53.326;-6.298;2023-02-10T06:19:45;102892.54;;;8.02;83.40
61488;BME280;47351;53.326;-6.298;2023-02-10T06:22:36;102892.17;;;8.02;83.24
61488;BME280;47351;53.326;-6.298;2023-02-10T06:25:26;102897.93;;;8.01;83.16
61488;BME280;47351;53.326;-6.298;2023-02-10T06:28:17;102898.29;;;8.01;83.12
61488;BME280;47351;53.326;-6.298;2023-02-10T06:31:08;102895.11;;;8.04;83.57
61488;BME280;47351;53.326;-6.298;2023-02-10T06:33:59;102893.30;;;8.07;84.19
61488;BME280;47351;53.326;-6.298;2023-02-10T06:36:50;102905.11;;;8.12;84.38
61488;BME280;47351;53.326;-6.298;2023-02-10T06:39:40;102910.61;;;8.12;84.15
61488;BME280;47351;53.326;-6.298;2023-02-10T06:42:30;102908.94;;;8.10;83.98
61488;BME280;47351;53.326;-6.298;2023-02-10T06:45:21;102902.83;;;8.11;84.06
61488;BME280;47351;53.326;-6.298;2023-02-10T06:48:11;102902.57;;;8.13;84.50
61488;BME280;47351;53.326;-6.298;2023-02-10T06:51:02;102907.20;;;8.16;85.01
61488;BME280;47351;53.326;-6.298;2023-02-10T06:53:52;102904.33;;;8.20;85.60
61488;BME280;47351;53.326;-6.298;2023-02-10T06:56:43;102900.53;;;8.24;85.62
61488;BME280;47351;53.326;-6.298;2023-02-10T06:59:35;102895.98;;;8.25;85.57
61488;BME280;47351;53.326;-6.298;2023-02-10T07:02:26;102893.65;;;8.26;85.29
61488;BME280;47351;53.326;-6.298;2023-02-10T07:05:22;102890.09;;;8.26;85.21
61488;BME280;47351;53.326;-6.298;2023-02-10T07:08:14;102894.16;;;8.23;84.96
61488;BME280;47351;53.326;-6.298;2023-02-10T07:11:05;102901.39;;;8.21;85.18
61488;BME280;47351;53.326;-6.298;2023-02-10T07:13:55;102899.30;;;8.21;85.17
61488;BME280;47351;53.326;-6.298;2023-02-10T07:16:46;102903.77;;;8.20;84.92
61488;BME280;47351;53.326;-6.298;2023-02-10T07:19:37;102911.29;;;8.19;84.72
61488;BME280;47351;53.326;-6.298;2023-02-10T07:22:28;102918.55;;;8.20;84.82
61488;BME280;47351;53.326;-6.298;2023-02-10T07:25:19;102920.48;;;8.20;85.07
61488;BME280;47351;53.326;-6.298;2023-02-10T07:28:10;102919.60;;;8.20;85.06
61488;BME280;47351;53.326;-6.298;2023-02-10T07:31:00;102922.27;;;8.20;85.03
61488;BME280;47351;53.326;-6.298;2023-02-10T07:33:51;102928.15;;;8.20;85.10
61488;BME280;47351;53.326;-6.298;2023-02-10T07:36:42;102939.89;;;8.20;85.18
61488;BME280;47351;53.326;-6.298;2023-02-10T07:39:53;102942.86;;;8.21;85.22
61488;BME280;47351;53.326;-6.298;2023-02-10T07:42:52;102945.25;;;8.22;85.20
61488;BME280;47351;53.326;-6.298;2023-02-10T07:46:03;102945.09;;;8.22;84.99
61488;BME280;47351;53.326;-6.298;2023-02-10T07:48:55;102947.47;;;8.21;85.22
61488;BME280;47351;53.326;-6.298;2023-02-10T07:51:47;102953.17;;;8.21;85.35
61488;BME280;47351;53.326;-6.298;2023-02-10T08:02:59;102958.21;;;8.26;85.38
61488;BME280;47351;53.326;-6.298;2023-02-10T08:06:03;102957.13;;;8.23;85.57
61488;BME280;47351;53.326;-6.298;2023-02-10T08:09:07;102957.44;;;8.24;85.62
61488;BME280;47351;53.326;-6.298;2023-02-10T08:12:18;102961.41;;;8.26;86.13
61488;BME280;47351;53.326;-6.298;2023-02-10T08:15:29;102958.95;;;8.29;86.15
61488;BME280;47351;53.326;-6.298;2023-02-10T08:18:40;102952.52;;;8.32;86.13
61488;BME280;47351;53.326;-6.298;2023-02-10T08:21:51;102945.42;;;8.35;86.34
61488;BME280;47351;53.326;-6.298;2023-02-10T08:24:42;102944.34;;;8.39;86.18
61488;BME280;47351;53.326;-6.298;2023-02-10T08:27:33;102946.69;;;8.42;86.17
61488;BME280;47351;53.326;-6.298;2023-02-10T08:30:44;102952.34;;;8.45;86.24
61488;BME280;47351;53.326;-6.298;2023-02-10T08:33:56;102952.05;;;8.50;86.26
61488;BME280;47351;53.326;-6.298;2023-02-10T08:37:07;102950.14;;;8.55;86.51
61488;BME280;47351;53.326;-6.298;2023-02-10T08:40:01;102950.50;;;8.61;86.58
61488;BME280;47351;53.326;-6.298;2023-02-10T08:42:56;102953.66;;;8.68;86.77
61488;BME280;47351;53.326;-6.298;2023-02-10T08:46:00;102952.05;;;8.74;86.84
61488;BME280;47351;53.326;-6.298;2023-02-10T08:49:11;102956.17;;;8.79;86.75
61488;BME280;47351;53.326;-6.298;2023-02-10T08:52:22;102965.38;;;8.84;86.41
61488;BME280;47351;53.326;-6.298;2023-02-10T08:55:33;102967.60;;;8.88;86.48
61488;BME280;47351;53.326;-6.298;2023-02-10T08:58:44;102971.33;;;8.94;86.38
61488;BME280;47351;53.326;-6.298;2023-02-10T09:01:55;102968.44;;;9.04;86.31
61488;BME280;47351;53.326;-6.298;2023-02-10T09:05:00;102961.73;;;9.15;85.99
61488;BME280;47351;53.326;-6.298;2023-02-10T09:08:19;102968.55;;;9.25;85.98
61488;BME280;47351;53.326;-6.298;2023-02-10T09:11:31;102974.09;;;9.34;85.97
61488;BME280;47351;53.326;-6.298;2023-02-10T09:14:29;102984.21;;;9.40;85.87
61488;BME280;47351;53.326;-6.298;2023-02-10T09:17:33;102992.26;;;9.43;85.58
61488;BME280;47351;53.326;-6.298;2023-02-10T09:20:27;102992.77;;;9.46;85.53
61488;BME280;47351;53.326;-6.298;2023-02-10T09:23:38;103000.70;;;9.53;85.42
61488;BME280;47351;53.326;-6.298;2023-02-10T09:26:49;103003.27;;;9.58;85.24
61488;BME280;47351;53.326;-6.298;2023-02-10T09:29:40;103004.84;;;9.61;85.07
61488;BME280;47351;53.326;-6.298;2023-02-10T09:32:42;103002.92;;;9.63;84.95
61488;BME280;47351;53.326;-6.298;2023-02-10T09:35:53;103003.09;;;9.69;84.84
61488;BME280;47351;53.326;-6.298;2023-02-10T09:38:49;103009.61;;;9.73;84.80
61488;BME280;47351;53.326;-6.298;2023-02-10T09:41:55;103005.20;;;9.75;84.85
61488;BME280;47351;53.326;-6.298;2023-02-10T09:45:01;103006.36;;;9.80;84.78
61488;BME280;47351;53.326;-6.298;2023-02-10T09:48:20;103013.40;;;9.87;84.69
61488;BME280;47351;53.326;-6.298;2023-02-10T09:51:37;103005.39;;;9.95;84.28
61488;BME280;47351;53.326;-6.298;2023-02-10T09:55:00;103010.98;;;9.99;84.16
61488;BME280;47351;53.326;-6.298;2023-02-10T09:57:52;103010.64;;;10.05;84.00
61488;BME280;47351;53.326;-6.298;2023-02-10T10:01:10;103007.27;;;10.07;84.15
61488;BME280;47351;53.326;-6.298;2023-02-10T10:04:23;103001.99;;;10.14;84.15
61488;BME280;47351;53.326;-6.298;2023-02-10T10:07:28;102998.45;;;10.25;83.88
61488;BME280;47351;53.326;-6.298;2023-02-10T10:10:34;102992.44;;;10.41;83.36
61488;BME280;47351;53.326;-6.298;2023-02-10T10:13:38;102992.59;;;10.57;82.96
61488;BME280;47351;53.326;-6.298;2023-02-10T10:23:36;102986.90;;;11.30;81.14
61488;BME280;47351;53.326;-6.298;2023-02-10T10:26:47;102986.08;;;11.45;80.60
61488;BME280;47351;53.326;-6.298;2023-02-10T10:30:02;102987.17;;;11.47;80.04
61488;BME280;47351;53.326;-6.298;2023-02-10T10:33:23;102989.92;;;11.43;79.68
61488;BME280;47351;53.326;-6.298;2023-02-10T10:36:29;102989.38;;;11.43;79.70
61488;BME280;47351;53.326;-6.298;2023-02-10T10:39:42;102989.02;;;11.46;79.41
61488;BME280;47351;53.326;-6.298;2023-02-10T10:42:45;102992.29;;;11.48;78.99
61488;BME280;47351;53.326;-6.298;2023-02-10T10:45:52;102983.46;;;11.49;78.83
61488;BME280;47351;53.326;-6.298;2023-02-10T10:48:59;102985.42;;;11.54;78.70
61488;BME280;47351;53.326;-6.298;2023-02-10T10:52:19;102989.09;;;11.60;78.44
61488;BME280;47351;53.326;-6.298;2023-02-10T10:55:19;102992.92;;;11.72;78.16
61488;BME280;47351;53.326;-6.298;2023-02-10T10:58:25;102989.44;;;11.86;77.83
61488;BME280;47351;53.326;-6.298;2023-02-10T11:01:17;102989.65;;;11.98;77.33
61488;BME280;47351;53.326;-6.298;2023-02-10T11:04:28;102992.94;;;12.07;76.83
61488;BME280;47351;53.326;-6.298;2023-02-10T11:07:24;102990.86;;;12.15;76.44
61488;BME280;47351;53.326;-6.298;2023-02-10T11:10:37;102999.23;;;12.23;76.13
61488;BME280;47351;53.326;-6.298;2023-02-10T11:13:50;102996.86;;;12.26;75.69
61488;BME280;47351;53.326;-6.298;2023-02-10T11:16:44;102998.58;;;12.25;75.44
61488;BME280;47351;53.326;-6.298;2023-02-10T11:19:55;103001.88;;;12.19;75.29
61488;BME280;47351;53.326;-6.298;2023-02-10T11:22:56;102999.92;;;12.04;75.50
61488;BME280;47351;53.326;-6.298;2023-02-10T11:25:54;102995.66;;;11.94;76.14
61488;BME280;47351;53.326;-6.298;2023-02-10T11:28:45;102999.45;;;11.91;76.38
61488;BME280;47351;53.326;-6.298;2023-02-10T11:31:49;103001.69;;;11.92;76.57
61488;BME280;47351;53.326;-6.298;2023-02-10T11:34:44;102995.95;;;11.90;76.67
61488;BME280;47351;53.326;-6.298;2023-02-10T11:37:58;102998.67;;;11.84;76.51
61488;BME280;47351;53.326;-6.298;2023-02-10T11:40:55;102998.48;;;11.72;76.73
61488;BME280;47351;53.326;-6.298;2023-02-10T11:43:50;102996.58;;;11.66;76.99
61488;BME280;47351;53.326;-6.298;2023-02-10T11:46:57;102995.55;;;11.65;77.22
61488;BME280;47351;53.326;-6.298;2023-02-10T11:49:58;102991.15;;;11.64;77.43
61488;BME280;47351;53.326;-6.298;2023-02-10T11:53:10;102985.27;;;11.64;77.52
61488;BME280;47351;53.326;-6.298;2023-02-10T11:56:12;102990.20;;;11.65;77.53
61488;BME280;47351;53.326;-6.298;2023-02-10T11:59:27;102986.11;;;11.69;77.74
61488;BME280;47351;53.326;-6.298;2023-02-10T12:02:43;102979.51;;;11.74;77.45
61488;BME280;47351;53.326;-6.298;2023-02-10T12:05:57;102973.92;;;11.79;77.51
61488;BME280;47351;53.326;-6.298;2023-02-10T12:09:10;102972.61;;;11.80;77.55
61488;BME280;47351;53.326;-6.298;2023-02-10T12:12:13;102969.07;;;11.78;77.65
61488;BME280;47351;53.326;-6.298;2023-02-10T12:15:33;102965.81;;;11.71;77.79
61488;BME280;47351;53.326;-6.298;2023-02-10T12:18:53;102964.98;;;11.68;78.04
61488;BME280;47351;53.326;-6.298;2023-02-10T12:22:03;102959.75;;;11.70;78.13
61488;BME280;47351;53.326;-6.298;2023-02-10T12:25:18;102963.85;;;11.76;78.01
61488;BME280;47351;53.326;-6.298;2023-02-10T12:28:18;102962.63;;;11.80;77.80
61488;BME280;47351;53.326;-6.298;2023-02-10T12:31:19;102955.41;;;11.86;77.87
61488;BME280;47351;53.326;-6.298;2023-02-10T12:34:38;102959.12;;;11.97;77.65
61488;BME280;47351;53.326;-6.298;2023-02-10T12:37:58;102955.66;;;12.02;77.21
61488;BME280;47351;53.326;-6.298;2023-02-10T12:41:10;102952.65;;;12.02;77.05
61488;BME280;47351;53.326;-6.298;2023-02-10T12:44:21;102952.92;;;12.01;77.19
61488;BME280;47351;53.326;-6.298;2023-02-10T12:47:31;102950.00;;;11.94;77.12
61488;BME280;47351;53.326;-6.298;2023-02-10T12:50:33;102958.07;;;11.86;77.17
61488;BME280;47351;53.326;-6.298;2023-02-10T12:53:28;102956.93;;;11.82;77.35
61488;BME280;47351;53.326;-6.298;2023-02-10T12:56:24;102957.02;;;11.83;77.53
61488;BME280;47351;53.326;-6.298;2023-02-10T12:59:41;102955.52;;;11.85;77.48
61488;BME280;47351;53.326;-6.298;2023-02-10T13:02:36;102956.88;;;11.83;77.74
61488;BME280;47351;53.326;-6.298;2023-02-10T13:05:43;102958.91;;;11.85;77.84
61488;BME280;47351;53.326;-6.298;2023-02-10T13:08:57;102953.17;;;11.88;77.69
61488;BME280;47351;53.326;-6.298;2023-02-10T13:12:13;102947.14;;;11.89;77.75
61488;BME280;47351;53.326;-6.298;2023-02-10T13:15:27;102944.83;;;11.89;77.75
61488;BME280;47351;53.326;-6.298;2023-02-10T13:18:39;102947.55;;;11.91;77.88
61488;BME280;47351;53.326;-6.298;2023-02-10T13:21:37;102944.64;;;11.94;77.92
61488;BME280;47351;53.326;-6.298;2023-02-10T13:24:31;102944.69;;;11.98;77.84
61488;BME280;47351;53.326;-6.298;2023-02-10T13:27:37;102945.01;;;12.01;77.79
61488;BME280;47351;53.326;-6.298;2023-02-10T13:34:19;102946.38;;;11.99;77.37
61488;BME280;47351;53.326;-6.298;2023-02-10T13:37:12;102946.14;;;12.00;77.32
61488;BME280;47351;53.326;-6.298;2023-02-10T13:40:26;102944.38;;;12.08;77.19
61488;BME280;47351;53.326;-6.298;2023-02-10T13:43:23;102948.83;;;12.13;76.97
61488;BME280;47351;53.326;-6.298;2023-02-10T13:46:25;102941.90;;;12.19;76.86
61488;BME280;47351;53.326;-6.298;2023-02-10T13:49:31;102946.11;;;12.25;76.48
61488;BME280;47351;53.326;-6.298;2023-02-10T13:52:23;102941.33;;;12.32;76.30
61488;BME280;47351;53.326;-6.298;2023-02-10T13:55:25;102944.84;;;12.39;75.80
61488;BME280;47351;53.326;-6.298;2023-02-10T13:58:27;102940.73;;;12.46;75.43
61488;BME280;47351;53.326;-6.298;2023-02-10T14:01:33;102944.63;;;12.54;74.84
61488;BME280;47351;53.326;-6.298;2023-02-10T14:04:38;102943.04;;;12.57;74.65
61488;BME280;47351;53.326;-6.298;2023-02-10T14:07:42;102944.70;;;12.56;74.34
61488;BME280;47351;53.326;-6.298;2023-02-10T14:10:35;102940.67;;;12.49;74.13
61488;BME280;47351;53.326;-6.298;2023-02-10T14:13:56;102937.38;;;12.46;74.28
61488;BME280;47351;53.326;-6.298;2023-02-10T14:17:03;102938.94;;;12.49;74.15
61488;BME280;47351;53.326;-6.298;2023-02-10T14:20:14;102932.33;;;12.53;74.04
61488;BME280;47351;53.326;-6.298;2023-02-10T14:23:05;102930.30;;;12.54;73.74
61488;BME280;47351;53.326;-6.298;2023-02-10T14:26:18;102932.98;;;12.57;73.90
61488;BME280;47351;53.326;-6.298;2023-02-10T14:29:25;102932.33;;;12.61;73.81
61488;BME280;47351;53.326;-6.298;2023-02-10T14:32:27;102935.87;;;12.61;73.57
61488;BME280;47351;53.326;-6.298;2023-02-10T14:35:36;102936.76;;;12.59;73.50
61488;BME280;47351;53.326;-6.298;2023-02-10T14:38:50;102942.93;;;12.56;73.63
61488;BME280;47351;53.326;-6.298;2023-02-10T14:41:43;102941.00;;;12.52;73.81
61488;BME280;47351;53.326;-6.298;2023-02-10T14:44:45;102940.48;;;12.47;73.84
61488;BME280;47351;53.326;-6.298;2023-02-10T14:47:51;102943.09;;;12.39;73.87
61488;BME280;47351;53.326;-6.298;2023-02-10T14:50:57;102947.98;;;12.31;74.06
61488;BME280;47351;53.326;-6.298;2023-02-10T14:54:09;102948.10;;;12.25;74.20
61488;BME280;47351;53.326;-6.298;2023-02-10T14:57:12;102944.38;;;12.22;74.36
61488;BME280;47351;53.326;-6.298;2023-02-10T15:00:13;102941.33;;;12.22;74.35
61488;BME280;47351;53.326;-6.298;2023-02-10T15:03:16;102943.46;;;12.20;74.37
61488;BME280;47351;53.326;-6.298;2023-02-10T15:06:27;102936.10;;;12.20;74.42
61488;BME280;47351;53.326;-6.298;2023-02-10T15:09:40;102932.60;;;12.24;74.38
61488;BME280;47351;53.326;-6.298;2023-02-10T15:12:45;102925.53;;;12.27;74.11
61488;BME280;47351;53.326;-6.298;2023-02-10T15:15:40;102925.64;;;12.31;73.93
61488;BME280;47351;53.326;-6.298;2023-02-10T15:18:33;102920.31;;;12.33;73.73
61488;BME280;47351;53.326;-6.298;2023-02-10T15:21:46;102917.80;;;12.33;73.63
61488;BME280;47351;53.326;-6.298;2023-02-10T15:24:51;102923.03;;;12.30;73.22
61488;BME280;47351;53.326;-6.298;2023-02-10T15:27:52;102923.08;;;12.26;73.14
61488;BME280;47351;53.326;-6.298;2023-02-10T15:30:45;102932.83;;;12.28;73.44
61488;BME280;47351;53.326;-6.298;2023-02-10T15:33:50;102935.10;;;12.28;73.36
61488;BME280;47351;53.326;-6.298;2023-02-10T15:37:02;102932.69;;;12.27;73.48
61488;BME280;47351;53.326;-6.298;2023-02-10T15:39:57;102934.80;;;12.25;73.57
61488;BME280;47351;53.326;-6.298;2023-02-10T15:43:02;102930.64;;;12.21;73.46
61488;BME280;47351;53.326;-6.298;2023-02-10T15:46:03;102931.80;;;12.18;73.49
61488;BME280;47351;53.326;-6.298;2023-02-10T15:48:54;102933.02;;;12.11;73.20
61488;BME280;47351;53.326;-6.298;2023-02-10T15:51:54;102932.02;;;12.02;73.17